sensor_id;sensor_type;location;lat;lon;timestamp;pressure;altitude;pressure_sealevel;temperature;humidity
42705;BME280;28342;42.594;23.414;2022-12-07T00:01:19;94489.34;;;5.85;88.19
42705;BME280;28342;42.594;23.414;2022-12-07T00:03:46;94484.34;;;5.83;87.80
42705;BME280;28342;42.594;23.414;2022-12-07T00:06:13;94466.84;;;5.68;87.38
42705;BME280;28342;42.594;23.414;2022-12-07T00:08:39;94488.28;;;5.81;87.50
42705;BME280;28342;42.594;23.414;2022-12-07T00:11:08;94481.81;;;5.73;87.09
42705;BME280;28342;42.594;23.414;2022-12-07T00:13:35;94465.88;;;5.59;87.45
42705;BME280;28342;42.594;23.414;2022-12-07T00:16:20;94483.16;;;5.65;87.41
42705;BME280;28342;42.594;23.414;2022-12-07T00:18:46;94489.47;;;5.69;87.53
42705;BME280;28342;42.594;23.414;2022-12-07T00:21:18;94457.50;;;5.52;87.17
42705;BME280;28342;42.594;23.414;2022-12-07T00:23:45;94472.78;;;5.50;86.98
42705;BME280;28342;42.594;23.414;2022-12-07T00:26:14;94451.97;;;5.54;86.88
42705;BME280;28342;42.594;23.414;2022-12-07T00:28:40;94472.13;;;5.63;86.42
42705;BME280;28342;42.594;23.414;2022-12-07T00:31:08;94460.81;;;5.63;86.61
42705;BME280;28342;42.594;23.414;2022-12-07T00:33:34;94451.47;;;5.52;86.52
42705;BME280;28342;42.594;23.414;2022-12-07T00:36:01;94457.47;;;5.57;86.47
42705;BME280;28342;42.594;23.414;2022-12-07T00:38:29;94476.31;;;5.69;85.89
42705;BME280;28342;42.594;23.414;2022-12-07T00:40:56;94472.69;;;5.60;86.50
42705;BME280;28342;42.594;23.414;2022-12-07T00:43:22;94474.59;;;5.55;86.99
42705;BME280;28342;42.594;23.414;2022-12-07T00:45:47;94462.22;;;5.55;86.79
42705;BME280;28342;42.594;23.414;2022-12-07T00:48:13;94454.88;;;5.52;86.13
42705;BME280;28342;42.594;23.414;2022-12-07T00:50:38;94465.47;;;5.42;87.22
42705;BME280;28342;42.594;23.414;2022-12-07T00:53:03;94464.53;;;5.28;88.07
42705;BME280;28342;42.594;23.414;2022-12-07T00:55:33;94449.53;;;5.28;87.96
42705;BME280;28342;42.594;23.414;2022-12-07T00:57:58;94439.88;;;5.19;87.91
42705;BME280;28342;42.594;23.414;2022-12-07T01:00:24;94431.97;;;5.24;87.99
42705;BME280;28342;42.594;23.414;2022-12-07T01:02:49;94452.38;;;5.37;87.87
42705;BME280;28342;42.594;23.414;2022-12-07T01:05:14;94439.47;;;5.35;88.23
42705;BME280;28342;42.594;23.414;2022-12-07T01:07:40;94445.91;;;5.19;89.68
42705;BME280;28342;42.594;23.414;2022-12-07T01:10:06;94443.81;;;5.21;90.07
42705;BME280;28342;42.594;23.414;2022-12-07T01:12:31;94447.75;;;5.24;89.82
42705;BME280;28342;42.594;23.414;2022-12-07T01:14:57;94466.56;;;5.36;90.14
42705;BME280;28342;42.594;23.414;2022-12-07T01:17:22;94454.97;;;5.42;89.31
42705;BME280;28342;42.594;23.414;2022-12-07T01:19:48;94441.84;;;5.37;89.08
42705;BME280;28342;42.594;23.414;2022-12-07T01:22:13;94421.44;;;5.24;89.25
42705;BME280;28342;42.594;23.414;2022-12-07T01:24:38;94440.69;;;5.48;88.90
42705;BME280;28342;42.594;23.414;2022-12-07T01:27:04;94435.00;;;5.36;89.33
42705;BME280;28342;42.594;23.414;2022-12-07T01:29:29;94444.88;;;5.49;88.60
42705;BME280;28342;42.594;23.414;2022-12-07T01:31:55;94437.06;;;5.44;87.85
42705;BME280;28342;42.594;23.414;2022-12-07T01:34:20;94434.41;;;5.44;87.81
42705;BME280;28342;42.594;23.414;2022-12-07T01:36:46;94435.44;;;5.48;87.69
42705;BME280;28342;42.594;23.414;2022-12-07T01:39:11;94439.69;;;5.44;88.32
42705;BME280;28342;42.594;23.414;2022-12-07T01:41:39;94426.88;;;5.32;88.43
42705;BME280;28342;42.594;23.414;2022-12-07T01:44:18;94442.97;;;5.26;89.08
42705;BME280;28342;42.594;23.414;2022-12-07T01:46:58;94453.94;;;5.38;88.81
42705;BME280;28342;42.594;23.414;2022-12-07T01:49:40;94437.59;;;5.41;89.06
42705;BME280;28342;42.594;23.414;2022-12-07T01:52:16;94429.72;;;5.41;88.90
42705;BME280;28342;42.594;23.414;2022-12-07T01:54:44;94420.56;;;5.33;87.97
42705;BME280;28342;42.594;23.414;2022-12-07T01:57:11;94430.78;;;5.40;88.58
42705;BME280;28342;42.594;23.414;2022-12-07T01:59:41;94428.16;;;5.35;88.93
42705;BME280;28342;42.594;23.414;2022-12-07T02:02:19;94414.06;;;5.26;88.67
42705;BME280;28342;42.594;23.414;2022-12-07T02:04:47;94430.84;;;5.30;88.84
42705;BME280;28342;42.594;23.414;2022-12-07T02:07:14;94420.25;;;5.40;88.78
42705;BME280;28342;42.594;23.414;2022-12-07T02:09:40;94399.84;;;5.27;88.42
42705;BME280;28342;42.594;23.414;2022-12-07T02:12:06;94420.25;;;5.40;88.45
42705;BME280;28342;42.594;23.414;2022-12-07T02:14:31;94422.34;;;5.43;87.77
42705;BME280;28342;42.594;23.414;2022-12-07T02:19:43;94418.59;;;5.49;88.15
42705;BME280;28342;42.594;23.414;2022-12-07T02:25:43;94424.97;;;5.43;88.41
42705;BME280;28342;42.594;23.414;2022-12-07T02:30:56;94417.66;;;5.35;88.40
42705;BME280;28342;42.594;23.414;2022-12-07T02:33:31;94425.53;;;5.40;88.09
42705;BME280;28342;42.594;23.414;2022-12-07T02:38:58;94409.59;;;5.26;87.71
42705;BME280;28342;42.594;23.414;2022-12-07T02:41:29;94427.16;;;5.31;88.19
42705;BME280;28342;42.594;23.414;2022-12-07T02:44:01;94414.34;;;5.24;88.30
42705;BME280;28342;42.594;23.414;2022-12-07T02:46:31;94421.84;;;5.36;87.78
42705;BME280;28342;42.594;23.414;2022-12-07T02:48:58;94415.63;;;5.27;87.96
42705;BME280;28342;42.594;23.414;2022-12-07T02:51:32;94406.69;;;5.28;88.52
42705;BME280;28342;42.594;23.414;2022-12-07T02:53:59;94390.97;;;5.18;88.20
42705;BME280;28342;42.594;23.414;2022-12-07T03:10:33;94402.28;;;5.18;88.89
42705;BME280;28342;42.594;23.414;2022-12-07T03:16:20;94395.38;;;5.27;88.08
42705;BME280;28342;42.594;23.414;2022-12-07T03:18:22;94401.19;;;5.24;87.84
42705;BME280;28342;42.594;23.414;2022-12-07T03:20:51;94394.09;;;5.25;88.13
42705;BME280;28342;42.594;23.414;2022-12-07T03:23:19;94394.66;;;5.17;88.24
42705;BME280;28342;42.594;23.414;2022-12-07T03:25:49;94381.63;;;5.01;87.87
42705;BME280;28342;42.594;23.414;2022-12-07T03:28:19;94393.88;;;5.16;87.86
42705;BME280;28342;42.594;23.414;2022-12-07T03:30:51;94385.50;;;5.14;88.10
42705;BME280;28342;42.594;23.414;2022-12-07T03:33:20;94385.81;;;5.07;88.49
42705;BME280;28342;42.594;23.414;2022-12-07T03:36:01;94384.25;;;5.06;88.55
42705;BME280;28342;42.594;23.414;2022-12-07T03:38:45;94374.66;;;4.87;88.57
42705;BME280;28342;42.594;23.414;2022-12-07T03:41:18;94370.69;;;4.89;88.93
42705;BME280;28342;42.594;23.414;2022-12-07T03:43:44;94378.22;;;5.01;89.06
42705;BME280;28342;42.594;23.414;2022-12-07T03:51:47;94374.47;;;4.73;90.31
42705;BME280;28342;42.594;23.414;2022-12-07T03:54:21;94388.63;;;4.82;89.65
42705;BME280;28342;42.594;23.414;2022-12-07T03:56:49;94376.22;;;4.88;88.88
42705;BME280;28342;42.594;23.414;2022-12-07T03:59:15;94400.09;;;4.96;89.43
42705;BME280;28342;42.594;23.414;2022-12-07T04:01:51;94373.34;;;4.84;90.04
42705;BME280;28342;42.594;23.414;2022-12-07T04:04:17;94383.81;;;4.89;90.09
42705;BME280;28342;42.594;23.414;2022-12-07T04:06:42;94385.44;;;4.85;90.19
42705;BME280;28342;42.594;23.414;2022-12-07T04:09:08;94374.41;;;4.83;90.06
42705;BME280;28342;42.594;23.414;2022-12-07T04:11:33;94367.25;;;4.89;89.46
42705;BME280;28342;42.594;23.414;2022-12-07T04:13:59;94375.91;;;4.94;90.08
42705;BME280;28342;42.594;23.414;2022-12-07T04:16:43;94341.34;;;4.77;89.86
42705;BME280;28342;42.594;23.414;2022-12-07T04:19:08;94379.59;;;4.93;90.39
42705;BME280;28342;42.594;23.414;2022-12-07T04:21:34;94374.09;;;4.90;90.66
42705;BME280;28342;42.594;23.414;2022-12-07T04:23:59;94377.41;;;5.05;90.56
42705;BME280;28342;42.594;23.414;2022-12-07T04:26:24;94374.34;;;4.93;90.70
42705;BME280;28342;42.594;23.414;2022-12-07T04:28:50;94385.84;;;5.02;90.42
42705;BME280;28342;42.594;23.414;2022-12-07T04:31:15;94367.44;;;5.02;89.38
42705;BME280;28342;42.594;23.414;2022-12-07T04:33:41;94368.06;;;4.89;90.01
42705;BME280;28342;42.594;23.414;2022-12-07T04:36:06;94361.03;;;4.79;90.13
42705;BME280;28342;42.594;23.414;2022-12-07T04:38:32;94383.75;;;4.99;90.16
42705;BME280;28342;42.594;23.414;2022-12-07T04:40:58;94374.81;;;5.00;89.88
42705;BME280;28342;42.594;23.414;2022-12-07T04:43:23;94364.91;;;4.87;90.01
42705;BME280;28342;42.594;23.414;2022-12-07T04:45:49;94380.50;;;4.78;90.43
42705;BME280;28342;42.594;23.414;2022-12-07T04:48:15;94384.81;;;4.98;90.49
42705;BME280;28342;42.594;23.414;2022-12-07T04:50:41;94381.91;;;5.00;90.28
42705;BME280;28342;42.594;23.414;2022-12-07T04:53:06;94387.88;;;5.10;90.16
42705;BME280;28342;42.594;23.414;2022-12-07T04:55:32;94382.13;;;5.08;89.96
42705;BME280;28342;42.594;23.414;2022-12-07T04:57:57;94375.81;;;5.04;90.04
42705;BME280;28342;42.594;23.414;2022-12-07T05:00:22;94377.41;;;5.05;89.81
42705;BME280;28342;42.594;23.414;2022-12-07T05:02:48;94376.34;;;5.06;89.52
42705;BME280;28342;42.594;23.414;2022-12-07T05:05:13;94384.00;;;5.03;89.71
42705;BME280;28342;42.594;23.414;2022-12-07T05:07:39;94395.78;;;5.10;89.50
42705;BME280;28342;42.594;23.414;2022-12-07T05:10:05;94367.25;;;4.94;88.73
42705;BME280;28342;42.594;23.414;2022-12-07T05:12:30;94392.63;;;5.08;88.97
42705;BME280;28342;42.594;23.414;2022-12-07T05:14:56;94386.34;;;5.04;89.18
42705;BME280;28342;42.594;23.414;2022-12-07T05:17:21;94382.19;;;4.98;89.33
42705;BME280;28342;42.594;23.414;2022-12-07T05:19:47;94390.56;;;5.05;89.48
42705;BME280;28342;42.594;23.414;2022-12-07T05:22:12;94374.81;;;5.00;89.27
42705;BME280;28342;42.594;23.414;2022-12-07T05:24:38;94374.81;;;5.00;88.94
42705;BME280;28342;42.594;23.414;2022-12-07T05:27:04;94377.41;;;5.05;88.79
42705;BME280;28342;42.594;23.414;2022-12-07T05:29:29;94383.69;;;5.09;88.63
42705;BME280;28342;42.594;23.414;2022-12-07T05:31:54;94381.63;;;5.01;88.07
42705;BME280;28342;42.594;23.414;2022-12-07T05:34:20;94377.16;;;5.02;87.47
42705;BME280;28342;42.594;23.414;2022-12-07T05:36:45;94391.53;;;5.15;87.40
42705;BME280;28342;42.594;23.414;2022-12-07T05:39:11;94402.38;;;5.08;87.53
42705;BME280;28342;42.594;23.414;2022-12-07T05:41:36;94383.25;;;4.97;86.76
42705;BME280;28342;42.594;23.414;2022-12-07T05:44:20;94390.69;;;4.90;87.21
42705;BME280;28342;42.594;23.414;2022-12-07T05:46:46;94408.44;;;5.03;87.10
42705;BME280;28342;42.594;23.414;2022-12-07T05:49:11;94401.16;;;4.95;87.73
42705;BME280;28342;42.594;23.414;2022-12-07T05:51:37;94389.06;;;4.89;87.98
42705;BME280;28342;42.594;23.414;2022-12-07T05:54:02;94380.28;;;4.75;88.61
42705;BME280;28342;42.594;23.414;2022-12-07T05:56:28;94370.28;;;4.72;88.20
42705;BME280;28342;42.594;23.414;2022-12-07T05:58:54;94377.63;;;4.75;88.50
42705;BME280;28342;42.594;23.414;2022-12-07T06:01:38;94355.13;;;4.64;88.02
42705;BME280;28342;42.594;23.414;2022-12-07T06:04:03;94389.69;;;4.81;88.14
42705;BME280;28342;42.594;23.414;2022-12-07T06:06:29;94379.44;;;4.79;88.06
42705;BME280;28342;42.594;23.414;2022-12-07T06:08:54;94367.94;;;4.70;88.56
42705;BME280;28342;42.594;23.414;2022-12-07T06:11:20;94376.38;;;4.67;89.03
42705;BME280;28342;42.594;23.414;2022-12-07T06:14:04;94378.75;;;4.59;89.57
42705;BME280;28342;42.594;23.414;2022-12-07T06:16:29;94383.69;;;4.70;88.52
42705;BME280;28342;42.594;23.414;2022-12-07T06:18:55;94377.19;;;4.58;89.10
42705;BME280;28342;42.594;23.414;2022-12-07T06:21:20;94384.09;;;4.48;89.82
42705;BME280;28342;42.594;23.414;2022-12-07T06:23:45;94384.88;;;4.49;89.96
42705;BME280;28342;42.594;23.414;2022-12-07T06:26:13;94378.88;;;4.38;91.14
42705;BME280;28342;42.594;23.414;2022-12-07T06:28:38;94381.44;;;4.54;91.03
42705;BME280;28342;42.594;23.414;2022-12-07T06:31:04;94365.72;;;4.43;91.18
42705;BME280;28342;42.594;23.414;2022-12-07T06:33:29;94387.66;;;4.68;90.76
42705;BME280;28342;42.594;23.414;2022-12-07T06:35:55;94386.03;;;4.77;90.57
42705;BME280;28342;42.594;23.414;2022-12-07T06:38:20;94387.28;;;4.85;89.97
42705;BME280;28342;42.594;23.414;2022-12-07T06:40:46;94383.63;;;4.80;90.12
42705;BME280;28342;42.594;23.414;2022-12-07T06:43:11;94375.75;;;4.80;90.07
42705;BME280;28342;42.594;23.414;2022-12-07T06:45:37;94392.13;;;5.06;89.38
42705;BME280;28342;42.594;23.414;2022-12-07T06:48:02;94384.75;;;5.08;88.77
42705;BME280;28342;42.594;23.414;2022-12-07T06:50:28;94396.72;;;5.20;88.61
42705;BME280;28342;42.594;23.414;2022-12-07T06:52:54;94382.03;;;5.19;88.34
42705;BME280;28342;42.594;23.414;2022-12-07T06:55:19;94385.06;;;5.31;87.54
42705;BME280;28342;42.594;23.414;2022-12-07T06:57:44;94391.34;;;5.35;87.85
42705;BME280;28342;42.594;23.414;2022-12-07T07:00:10;94399.78;;;5.37;88.15
42705;BME280;28342;42.594;23.414;2022-12-07T07:02:36;94396.38;;;5.31;88.22
42705;BME280;28342;42.594;23.414;2022-12-07T07:05:02;94407.13;;;5.35;88.58
42705;BME280;28342;42.594;23.414;2022-12-07T07:07:28;94414.94;;;5.45;88.09
42705;BME280;28342;42.594;23.414;2022-12-07T07:09:54;94413.88;;;5.46;89.63
42705;BME280;28342;42.594;23.414;2022-12-07T07:12:19;94393.31;;;5.53;89.77
42705;BME280;28342;42.594;23.414;2022-12-07T07:14:45;94396.75;;;5.49;90.45
42705;BME280;28342;42.594;23.414;2022-12-07T07:17:10;94404.84;;;5.57;90.61
42705;BME280;28342;42.594;23.414;2022-12-07T07:19:36;94414.44;;;5.72;90.43
42705;BME280;28342;42.594;23.414;2022-12-07T07:22:02;94401.16;;;5.58;91.35
42705;BME280;28342;42.594;23.414;2022-12-07T07:24:28;94403.91;;;5.72;91.04
42705;BME280;28342;42.594;23.414;2022-12-07T07:26:53;94389.97;;;5.72;90.70
42705;BME280;28342;42.594;23.414;2022-12-07T07:29:19;94397.75;;;5.82;90.23
42705;BME280;28342;42.594;23.414;2022-12-07T07:31:44;94390.09;;;5.85;90.06
42705;BME280;28342;42.594;23.414;2022-12-07T07:34:10;94404.47;;;5.98;89.89
42705;BME280;28342;42.594;23.414;2022-12-07T07:36:35;94410.16;;;6.05;89.64
42705;BME280;28342;42.594;23.414;2022-12-07T07:39:00;94418.47;;;6.17;89.60
42705;BME280;28342;42.594;23.414;2022-12-07T07:41:26;94428.88;;;6.27;89.31
42705;BME280;28342;42.594;23.414;2022-12-07T07:43:51;94419.69;;;6.25;89.32
42705;BME280;28342;42.594;23.414;2022-12-07T07:46:17;94404.56;;;6.12;89.64
42705;BME280;28342;42.594;23.414;2022-12-07T07:48:45;94414.19;;;6.21;89.35
42705;BME280;28342;42.594;23.414;2022-12-07T07:51:10;94418.22;;;6.38;88.93
42705;BME280;28342;42.594;23.414;2022-12-07T07:53:36;94419.94;;;6.28;89.48
42705;BME280;28342;42.594;23.414;2022-12-07T07:56:01;94389.03;;;6.10;89.19
42705;BME280;28342;42.594;23.414;2022-12-07T07:58:27;94398.84;;;6.28;89.90
42705;BME280;28342;42.594;23.414;2022-12-07T08:00:52;94412.84;;;6.48;89.82
42705;BME280;28342;42.594;23.414;2022-12-07T08:03:18;94397.25;;;6.51;89.32
42705;BME280;28342;42.594;23.414;2022-12-07T08:05:43;94374.59;;;6.50;88.26
42705;BME280;28342;42.594;23.414;2022-12-07T08:08:09;94415.28;;;6.82;88.36
42705;BME280;28342;42.594;23.414;2022-12-07T08:10:34;94411.16;;;6.95;88.27
42705;BME280;28342;42.594;23.414;2022-12-07T08:13:00;94405.28;;;6.98;87.18
42705;BME280;28342;42.594;23.414;2022-12-07T08:15:43;94396.47;;;7.07;86.13
42705;BME280;28342;42.594;23.414;2022-12-07T08:18:10;94405.28;;;6.98;85.92
42705;BME280;28342;42.594;23.414;2022-12-07T08:20:36;94403.41;;;7.17;85.42
42705;BME280;28342;42.594;23.414;2022-12-07T08:23:03;94410.09;;;7.28;85.91
42705;BME280;28342;42.594;23.414;2022-12-07T08:25:29;94398.00;;;7.27;84.98
42705;BME280;28342;42.594;23.414;2022-12-07T08:27:55;94396.28;;;7.36;84.66
42705;BME280;28342;42.594;23.414;2022-12-07T08:30:28;94406.84;;;7.50;84.25
42705;BME280;28342;42.594;23.414;2022-12-07T08:32:55;94405.91;;;7.60;83.88
42705;BME280;28342;42.594;23.414;2022-12-07T08:35:21;94398.47;;;7.62;83.75
42705;BME280;28342;42.594;23.414;2022-12-07T08:37:46;94405.91;;;7.60;83.24
42705;BME280;28342;42.594;23.414;2022-12-07T08:40:12;94371.25;;;7.47;83.26
42705;BME280;28342;42.594;23.414;2022-12-07T08:42:47;94389.91;;;7.70;83.23
42705;BME280;28342;42.594;23.414;2022-12-07T08:45:14;94397.63;;;7.66;83.55
42705;BME280;28342;42.594;23.414;2022-12-07T08:50:18;94401.31;;;7.65;83.57
42705;BME280;28342;42.594;23.414;2022-12-07T08:52:44;94382.72;;;7.57;83.31
42705;BME280;28342;42.594;23.414;2022-12-07T08:55:12;94397.09;;;7.64;83.30
42705;BME280;28342;42.594;23.414;2022-12-07T08:57:39;94390.47;;;7.67;83.58
42705;BME280;28342;42.594;23.414;2022-12-07T09:00:05;94392.59;;;7.51;84.38
42705;BME280;28342;42.594;23.414;2022-12-07T09:02:31;94397.59;;;7.53;84.12
42705;BME280;28342;42.594;23.414;2022-12-07T09:04:57;94401.59;;;7.64;83.71
42705;BME280;28342;42.594;23.414;2022-12-07T09:07:23;94377.44;;;7.57;83.82
42705;BME280;28342;42.594;23.414;2022-12-07T09:09:49;94362.66;;;7.42;84.57
42705;BME280;28342;42.594;23.414;2022-12-07T09:12:14;94367.38;;;7.59;83.99
42705;BME280;28342;42.594;23.414;2022-12-07T09:14:40;94363.66;;;7.60;83.60
42705;BME280;28342;42.594;23.414;2022-12-07T09:17:10;94385.66;;;7.55;83.54
42705;BME280;28342;42.594;23.414;2022-12-07T09:19:36;94379.31;;;7.56;83.47
42705;BME280;28342;42.594;23.414;2022-12-07T09:22:02;94380.41;;;7.69;83.01
42705;BME280;28342;42.594;23.414;2022-12-07T09:24:27;94371.91;;;7.72;83.27
42705;BME280;28342;42.594;23.414;2022-12-07T09:26:53;94374.06;;;7.70;83.34
42705;BME280;28342;42.594;23.414;2022-12-07T09:29:18;94353.53;;;7.67;83.34
42705;BME280;28342;42.594;23.414;2022-12-07T09:31:44;94357.63;;;7.73;83.34
42705;BME280;28342;42.594;23.414;2022-12-07T09:34:09;94365.06;;;7.85;83.00
42705;BME280;28342;42.594;23.414;2022-12-07T09:36:35;94342.16;;;7.80;82.51
42705;BME280;28342;42.594;23.414;2022-12-07T09:39:00;94349.41;;;7.88;83.09
42705;BME280;28342;42.594;23.414;2022-12-07T09:41:26;94332.13;;;7.82;82.75
42705;BME280;28342;42.594;23.414;2022-12-07T09:43:55;94352.94;;;7.97;82.95
42705;BME280;28342;42.594;23.414;2022-12-07T09:46:23;94336.81;;;7.85;82.58
42705;BME280;28342;42.594;23.414;2022-12-07T09:48:49;94347.66;;;7.97;82.91
42705;BME280;28342;42.594;23.414;2022-12-07T09:51:21;94332.00;;;7.87;82.42
42705;BME280;28342;42.594;23.414;2022-12-07T09:53:48;94326.13;;;7.90;82.17
42705;BME280;28342;42.594;23.414;2022-12-07T09:56:15;94331.81;;;7.70;82.62
42705;BME280;28342;42.594;23.414;2022-12-07T09:58:42;94329.13;;;7.42;84.11
42705;BME280;28342;42.594;23.414;2022-12-07T10:03:35;94314.59;;;7.72;83.48
42705;BME280;28342;42.594;23.414;2022-12-07T10:06:02;94331.59;;;7.94;83.52
42705;BME280;28342;42.594;23.414;2022-12-07T10:08:29;94319.66;;;7.96;82.86
42705;BME280;28342;42.594;23.414;2022-12-07T10:10:55;94322.41;;;7.91;83.30
42705;BME280;28342;42.594;23.414;2022-12-07T10:13:35;94315.25;;;8.05;82.81
42705;BME280;28342;42.594;23.414;2022-12-07T10:16:02;94313.41;;;8.06;82.41
42705;BME280;28342;42.594;23.414;2022-12-07T10:18:39;94314.97;;;8.21;82.57
42705;BME280;28342;42.594;23.414;2022-12-07T10:21:22;94311.31;;;8.30;82.41
42705;BME280;28342;42.594;23.414;2022-12-07T10:29:13;94301.44;;;8.36;81.46
42705;BME280;28342;42.594;23.414;2022-12-07T10:31:40;94286.06;;;8.38;81.21
42705;BME280;28342;42.594;23.414;2022-12-07T10:34:21;94292.22;;;8.47;81.26
42705;BME280;28342;42.594;23.414;2022-12-07T10:36:47;94293.97;;;8.52;81.32
42705;BME280;28342;42.594;23.414;2022-12-07T10:39:15;94272.41;;;8.58;80.93
42705;BME280;28342;42.594;23.414;2022-12-07T10:42:00;94279.03;;;8.69;80.42
42705;BME280;28342;42.594;23.414;2022-12-07T10:44:28;94281.91;;;8.82;79.94
42705;BME280;28342;42.594;23.414;2022-12-07T10:47:04;94273.84;;;8.87;79.66
42705;BME280;28342;42.594;23.414;2022-12-07T11:10:53;94245.16;;;9.03;78.14
42705;BME280;28342;42.594;23.414;2022-12-07T11:16:40;94243.97;;;9.09;77.09
42705;BME280;28342;42.594;23.414;2022-12-07T11:19:29;94247.00;;;9.24;77.87
42705;BME280;28342;42.594;23.414;2022-12-07T11:22:04;94233.75;;;9.24;77.05
42705;BME280;28342;42.594;23.414;2022-12-07T11:27:43;94226.69;;;9.42;76.54
42705;BME280;28342;42.594;23.414;2022-12-07T11:30:20;94216.09;;;9.42;76.40
42705;BME280;28342;42.594;23.414;2022-12-07T11:33:12;94229.47;;;9.46;76.49
42705;BME280;28342;42.594;23.414;2022-12-07T11:38:35;94221.84;;;9.36;76.24
42705;BME280;28342;42.594;23.414;2022-12-07T11:41:04;94208.44;;;9.41;77.01
42705;BME280;28342;42.594;23.414;2022-12-07T11:44:05;94207.06;;;9.43;76.10
42705;BME280;28342;42.594;23.414;2022-12-07T11:46:50;94203.97;;;9.50;76.84
42705;BME280;28342;42.594;23.414;2022-12-07T11:49:25;94194.44;;;9.49;77.11
42705;BME280;28342;42.594;23.414;2022-12-07T11:51:54;94200.28;;;9.68;76.75
42705;BME280;28342;42.594;23.414;2022-12-07T11:54:29;94194.56;;;9.83;76.06
42705;BME280;28342;42.594;23.414;2022-12-07T11:57:02;94191.91;;;9.83;74.59
42705;BME280;28342;42.594;23.414;2022-12-07T11:59:31;94183.03;;;9.88;75.00
42705;BME280;28342;42.594;23.414;2022-12-07T12:02:15;94183.03;;;9.97;74.55
42705;BME280;28342;42.594;23.414;2022-12-07T12:07:36;94171.50;;;10.10;74.83
42705;BME280;28342;42.594;23.414;2022-12-07T12:10:06;94164.19;;;10.15;73.71
42705;BME280;28342;42.594;23.414;2022-12-07T12:15:33;94177.94;;;10.26;72.88
42705;BME280;28342;42.594;23.414;2022-12-07T12:18:18;94173.88;;;10.29;71.89
42705;BME280;28342;42.594;23.414;2022-12-07T12:21:15;94166.72;;;10.29;72.91
42705;BME280;28342;42.594;23.414;2022-12-07T12:23:45;94156.72;;;10.35;73.33
42705;BME280;28342;42.594;23.414;2022-12-07T12:26:24;94159.38;;;10.26;72.86
42705;BME280;28342;42.594;23.414;2022-12-07T12:28:57;94157.31;;;10.40;72.48
42705;BME280;28342;42.594;23.414;2022-12-07T12:34:01;94145.34;;;10.34;71.36
42705;BME280;28342;42.594;23.414;2022-12-07T12:39:18;94134.25;;;10.50;71.59
42705;BME280;28342;42.594;23.414;2022-12-07T12:47:02;94132.22;;;10.46;72.01
42705;BME280;28342;42.594;23.414;2022-12-07T12:49:40;94142.50;;;10.48;71.93
42705;BME280;28342;42.594;23.414;2022-12-07T12:54:59;94128.66;;;10.42;71.57
42705;BME280;28342;42.594;23.414;2022-12-07T12:57:35;94145.34;;;10.43;72.40
42705;BME280;28342;42.594;23.414;2022-12-07T13:00:16;94129.56;;;10.21;71.85
42705;BME280;28342;42.594;23.414;2022-12-07T13:18:23;94137.53;;;10.46;71.32
42705;BME280;28342;42.594;23.414;2022-12-07T13:20:59;94147.22;;;10.42;71.76
42705;BME280;28342;42.594;23.414;2022-12-07T13:23:30;94141.28;;;10.45;71.53
42705;BME280;28342;42.594;23.414;2022-12-07T13:28:23;94147.66;;;10.36;71.49
42705;BME280;28342;42.594;23.414;2022-12-07T13:31:04;94143.63;;;10.30;71.20
42705;BME280;28342;42.594;23.414;2022-12-07T13:33:35;94146.25;;;10.38;71.91
42705;BME280;28342;42.594;23.414;2022-12-07T13:36:01;94130.97;;;10.35;72.05
42705;BME280;28342;42.594;23.414;2022-12-07T13:38:30;94119.47;;;10.31;72.31
42705;BME280;28342;42.594;23.414;2022-12-07T13:41:16;94151.25;;;10.40;72.18
42705;BME280;28342;42.594;23.414;2022-12-07T13:43:59;94141.91;;;10.42;71.56
42705;BME280;28342;42.594;23.414;2022-12-07T13:46:29;94139.53;;;10.41;71.85
42705;BME280;28342;42.594;23.414;2022-12-07T13:48:56;94117.25;;;10.16;71.96
42705;BME280;28342;42.594;23.414;2022-12-07T13:51:24;94133.47;;;10.23;72.17
42705;BME280;28342;42.594;23.414;2022-12-07T13:53:59;94129.75;;;10.24;71.84
42705;BME280;28342;42.594;23.414;2022-12-07T13:56:33;94134.25;;;10.24;71.93
42705;BME280;28342;42.594;23.414;2022-12-07T13:58:59;94125.06;;;10.21;72.05
42705;BME280;28342;42.594;23.414;2022-12-07T14:01:25;94132.06;;;10.26;72.57
42705;BME280;28342;42.594;23.414;2022-12-07T14:03:50;94119.78;;;10.21;72.50
42705;BME280;28342;42.594;23.414;2022-12-07T14:06:23;94130.38;;;10.21;72.84
42705;BME280;28342;42.594;23.414;2022-12-07T14:09:07;94106.97;;;10.06;73.15
42705;BME280;28342;42.594;23.414;2022-12-07T14:11:33;94126.16;;;10.11;73.07
42705;BME280;28342;42.594;23.414;2022-12-07T14:14:00;94111.97;;;9.99;73.48
42705;BME280;28342;42.594;23.414;2022-12-07T14:16:31;94137.34;;;10.08;73.72
42705;BME280;28342;42.594;23.414;2022-12-07T14:18:59;94132.53;;;10.02;73.94
42705;BME280;28342;42.594;23.414;2022-12-07T14:21:27;94128.78;;;9.85;74.53
42705;BME280;28342;42.594;23.414;2022-12-07T14:24:15;94151.72;;;9.81;75.20
42705;BME280;28342;42.594;23.414;2022-12-07T14:26:41;94132.53;;;9.67;74.93
42705;BME280;28342;42.594;23.414;2022-12-07T14:31:52;94137.19;;;9.70;75.37
42705;BME280;28342;42.594;23.414;2022-12-07T14:34:23;94113.81;;;9.55;75.14
42705;BME280;28342;42.594;23.414;2022-12-07T14:36:49;94131.88;;;9.53;75.83
42705;BME280;28342;42.594;23.414;2022-12-07T14:39:15;94113.47;;;9.48;75.84
42705;BME280;28342;42.594;23.414;2022-12-07T14:41:40;94116.13;;;9.48;76.04
42705;BME280;28342;42.594;23.414;2022-12-07T14:44:19;94117.94;;;9.30;76.21
42705;BME280;28342;42.594;23.414;2022-12-07T14:46:46;94136.16;;;9.32;76.58
42705;BME280;28342;42.594;23.414;2022-12-07T14:49:12;94135.03;;;9.15;77.00
42705;BME280;28342;42.594;23.414;2022-12-07T14:51:39;94128.31;;;9.09;77.60
42705;BME280;28342;42.594;23.414;2022-12-07T14:54:06;94130.75;;;8.97;77.85
42705;BME280;28342;42.594;23.414;2022-12-07T14:56:36;94145.34;;;8.86;78.31
42705;BME280;28342;42.594;23.414;2022-12-07T14:59:02;94149.25;;;8.88;78.37
42705;BME280;28342;42.594;23.414;2022-12-07T15:01:27;94146.19;;;8.73;78.84
42705;BME280;28342;42.594;23.414;2022-12-07T15:03:53;94151.63;;;8.67;78.77